createdAt,value
2023-05-01T00:00:09.829Z,20.50
2023-05-01T00:05:32.176Z,19.00
2023-05-01T00:10:38.172Z,20.10
2023-05-01T00:15:41.957Z,24.90
2023-05-01T00:20:43.931Z,20.80
2023-05-01T00:25:46.006Z,18.70
2023-05-01T00:30:48.180Z,20.60
2023-05-01T00:35:51.075Z,20.00
2023-05-01T00:40:53.053Z,16.90
2023-05-01T00:45:54.972Z,25.10
2023-05-01T00:50:58.224Z,21.40
2023-05-01T00:56:00.551Z,24.20
2023-05-01T01:01:02.518Z,21.30
2023-05-01T01:06:21.320Z,19.80
2023-05-01T01:11:34.813Z,21.50
2023-05-01T01:17:03.361Z,18.00
2023-05-01T01:22:13.116Z,18.10
2023-05-01T01:27:33.912Z,18.30
2023-05-01T01:32:38.721Z,19.00
2023-05-01T01:37:51.740Z,14.70
2023-05-01T01:43:08.296Z,16.80
2023-05-01T01:48:14.792Z,17.70
2023-05-01T01:53:19.405Z,15.60
2023-05-01T01:58:25.871Z,16.00
2023-05-01T02:03:30.636Z,16.50
2023-05-01T02:08:35.802Z,16.10
2023-05-01T02:13:40.533Z,18.20
2023-05-01T02:18:44.139Z,18.80
2023-05-01T02:23:46.368Z,16.60
2023-05-01T02:28:48.391Z,16.50
2023-05-01T02:33:50.658Z,15.80
2023-05-01T02:38:53.548Z,17.00
2023-05-01T02:44:01.424Z,17.30
2023-05-01T02:49:05.579Z,17.60
2023-05-01T02:54:08.184Z,18.10
2023-05-01T02:59:10.155Z,17.20
2023-05-01T03:04:12.409Z,14.50
2023-05-01T03:09:14.719Z,18.90
2023-05-01T03:14:16.638Z,20.60
2023-05-01T03:19:18.550Z,20.20
2023-05-01T03:24:20.661Z,20.30
2023-05-01T03:29:22.713Z,23.60
2023-05-01T03:34:24.662Z,22.00
2023-05-01T03:39:26.612Z,27.60
2023-05-01T03:44:28.564Z,22.00
2023-05-01T03:49:30.575Z,20.80
2023-05-01T03:54:32.559Z,18.30
2023-05-01T03:59:35.304Z,13.90
2023-05-01T04:04:38.148Z,12.10
2023-05-01T04:09:40.518Z,10.50
2023-05-01T04:14:44.358Z,10.00
2023-05-01T04:19:47.893Z,9.30
2023-05-01T04:24:51.471Z,11.50
2023-05-01T04:29:53.682Z,11.90
2023-05-01T04:34:56.449Z,9.60
2023-05-01T04:39:58.726Z,9.60
2023-05-01T04:45:03.894Z,10.10
2023-05-01T04:50:06.782Z,9.20
2023-05-01T04:55:09.457Z,8.00
2023-05-01T05:00:12.007Z,10.90
2023-05-01T05:05:14.003Z,8.90
2023-05-01T05:10:15.996Z,10.40
2023-05-01T05:15:17.987Z,7.70
2023-05-01T05:20:20.094Z,8.00
2023-05-01T05:25:22.172Z,6.30
2023-05-01T05:30:24.739Z,7.80
2023-05-01T05:35:27.202Z,7.90
2023-05-01T05:40:29.389Z,6.50
2023-05-01T05:45:34.096Z,7.90
2023-05-01T05:50:36.140Z,8.40
2023-05-01T05:55:38.448Z,6.30
2023-05-01T06:00:41.316Z,5.90
2023-05-01T06:05:44.477Z,5.50
2023-05-01T06:10:46.833Z,5.70
2023-05-01T06:15:49.693Z,6.20
2023-05-01T06:20:52.396Z,6.60
2023-05-01T06:25:56.751Z,7.20
2023-05-01T06:31:01.272Z,5.30
2023-05-01T06:36:04.064Z,6.60
2023-05-01T06:41:06.824Z,6.90
2023-05-01T06:46:13.276Z,7.90
2023-05-01T06:51:15.682Z,6.00
2023-05-01T06:56:22.873Z,6.20
2023-05-01T07:01:25.179Z,7.80
2023-05-01T07:06:27.408Z,6.30
2023-05-01T07:11:32.710Z,7.90
2023-05-01T07:16:35.159Z,6.20
2023-05-01T07:21:38.231Z,6.10
2023-05-01T07:26:40.590Z,6.70
2023-05-01T07:31:44.000Z,6.20
2023-05-01T07:36:46.285Z,7.90
2023-05-01T07:41:48.397Z,6.10
2023-05-01T07:46:50.704Z,5.40
2023-05-01T07:51:56.329Z,7.20
2023-05-01T07:56:58.531Z,5.90
2023-05-01T08:02:00.703Z,6.40
2023-05-01T08:07:02.817Z,7.10
2023-05-01T08:12:05.500Z,5.80
2023-05-01T08:17:07.925Z,6.30
2023-05-01T08:22:10.400Z,6.20
2023-05-01T08:27:12.447Z,6.20
2023-05-01T08:32:15.339Z,5.60
2023-05-01T08:37:18.849Z,7.30
2023-05-01T08:42:21.412Z,6.70
2023-05-01T08:47:24.031Z,7.20
2023-05-01T08:52:28.766Z,5.80
2023-05-01T08:57:32.362Z,7.20
2023-05-01T09:02:36.288Z,5.40
2023-05-01T09:07:39.059Z,5.90
2023-05-01T09:12:44.889Z,6.70
2023-05-01T09:17:47.856Z,6.90
2023-05-01T09:22:50.301Z,6.70
2023-05-01T09:27:52.595Z,6.30
2023-05-01T09:33:15.063Z,5.80
2023-05-01T09:38:22.182Z,6.20
2023-05-01T09:43:26.904Z,6.40
2023-05-01T09:48:31.040Z,6.40
2023-05-01T09:53:39.385Z,6.10
2023-05-01T09:58:41.604Z,6.80
2023-05-01T10:03:46.242Z,5.70
2023-05-01T10:08:50.329Z,7.40
2023-05-01T10:14:09.908Z,7.80
2023-05-01T10:19:12.916Z,6.20
2023-05-01T10:24:16.363Z,6.20
2023-05-01T10:29:23.001Z,7.90
2023-05-01T10:34:28.244Z,6.50
2023-05-01T10:39:36.259Z,5.40
2023-05-01T10:44:39.321Z,7.60
2023-05-01T10:50:04.493Z,6.10
2023-05-01T10:55:37.289Z,8.00
2023-05-01T11:00:40.501Z,5.00
2023-05-01T11:06:16.691Z,6.80
2023-05-01T11:11:25.555Z,5.80
2023-05-01T11:16:37.501Z,5.40
2023-05-01T11:21:41.852Z,5.30
2023-05-01T11:26:44.883Z,6.30
2023-05-01T11:31:48.903Z,5.50
2023-05-01T11:36:52.542Z,5.50
2023-05-01T11:42:11.062Z,6.50
2023-05-01T11:47:16.982Z,5.90
2023-05-01T11:52:25.119Z,6.80
2023-05-01T11:57:28.036Z,7.40
2023-05-01T12:02:30.321Z,6.70
2023-05-01T12:07:33.825Z,5.30
2023-05-01T12:12:36.274Z,6.00
2023-05-01T12:17:38.610Z,5.70
2023-05-01T12:22:50.791Z,7.00
2023-05-01T12:27:53.280Z,4.80
2023-05-01T12:32:58.622Z,5.00
2023-05-01T12:38:15.640Z,5.70
2023-05-01T12:43:19.396Z,6.50
2023-05-01T12:48:22.172Z,5.30
2023-05-01T12:53:26.208Z,6.00
2023-05-01T12:58:38.091Z,6.40
2023-05-01T13:03:43.674Z,6.00
2023-05-01T13:08:46.161Z,5.60
2023-05-01T13:13:54.049Z,4.10
2023-05-01T13:18:58.847Z,5.70
2023-05-01T13:24:04.999Z,6.70
2023-05-01T13:29:17.073Z,4.50
2023-05-01T13:34:28.796Z,7.00
2023-05-01T13:39:30.913Z,6.70
2023-05-01T13:44:33.504Z,9.00
2023-05-01T13:49:41.332Z,5.80
2023-05-01T13:54:43.598Z,10.10
2023-05-01T13:59:47.464Z,5.80
2023-05-01T14:04:49.630Z,6.20
2023-05-01T14:09:57.546Z,7.30
2023-05-01T14:15:00.968Z,5.80
2023-05-01T14:20:07.235Z,5.10
2023-05-01T14:25:22.804Z,6.70
2023-05-01T14:30:33.263Z,5.10
2023-05-01T14:35:36.094Z,7.10
2023-05-01T14:40:41.467Z,7.30
2023-05-01T14:45:49.472Z,5.80
2023-05-01T14:50:54.442Z,5.10
2023-05-01T14:55:56.481Z,5.80
2023-05-01T15:00:58.518Z,4.60
2023-05-01T15:06:01.242Z,5.00
2023-05-01T15:11:07.512Z,4.60
2023-05-01T15:16:11.111Z,5.40
2023-05-01T15:21:14.520Z,6.30
2023-05-01T15:26:16.813Z,6.60
2023-05-01T15:31:19.316Z,6.00
2023-05-01T15:36:21.424Z,5.00
2023-05-01T15:41:23.454Z,5.70
2023-05-01T15:46:26.890Z,6.70
2023-05-01T15:51:31.856Z,4.60
2023-05-01T15:56:39.199Z,4.80
2023-05-01T16:01:42.449Z,4.90
2023-05-01T16:06:45.618Z,5.80
2023-05-01T16:11:48.254Z,5.50
2023-05-01T16:16:50.625Z,4.80
2023-05-01T16:21:52.687Z,5.90
2023-05-01T16:26:54.944Z,6.70
2023-05-01T16:31:57.437Z,5.70
2023-05-01T16:36:59.644Z,7.40
2023-05-01T16:42:02.869Z,5.30
2023-05-01T16:47:06.980Z,5.90
2023-05-01T16:52:13.856Z,5.80
2023-05-01T16:57:16.988Z,5.50
2023-05-01T17:02:19.700Z,4.90
2023-05-01T17:07:23.733Z,6.10
2023-05-01T17:12:27.468Z,6.60
2023-05-01T17:17:29.803Z,6.50
2023-05-01T17:22:32.270Z,5.40
2023-05-01T17:27:34.363Z,7.20
2023-05-01T17:32:37.597Z,8.00
2023-05-01T17:37:40.261Z,6.70
2023-05-01T17:42:42.671Z,7.90
2023-05-01T17:47:46.472Z,4.30
2023-05-01T17:52:48.930Z,5.40
2023-05-01T17:57:52.715Z,6.60
2023-05-01T18:02:55.970Z,7.70
2023-05-01T18:07:58.187Z,9.00
2023-05-01T18:13:00.470Z,10.00
2023-05-01T18:18:02.995Z,9.30
2023-05-01T18:23:06.633Z,11.40
2023-05-01T18:28:09.199Z,11.90
2023-05-01T18:33:12.574Z,12.50
2023-05-01T18:38:14.828Z,9.60
2023-05-01T18:43:17.239Z,9.60
2023-05-01T18:48:19.355Z,9.80
2023-05-01T18:53:21.466Z,10.40
2023-05-01T18:58:23.495Z,12.60
2023-05-01T19:03:26.378Z,10.40
2023-05-01T19:08:28.436Z,13.90
2023-05-01T19:13:31.599Z,14.80
2023-05-01T19:18:33.808Z,19.10
2023-05-01T19:23:37.454Z,22.40
2023-05-01T19:28:42.855Z,17.70
2023-05-01T19:33:46.669Z,16.20
2023-05-01T19:38:49.098Z,15.80
2023-05-01T19:43:51.309Z,13.30
2023-05-01T19:48:54.331Z,11.20
2023-05-01T19:53:56.827Z,14.40
2023-05-01T19:58:59.480Z,13.10
2023-05-01T20:04:02.876Z,12.80
2023-05-01T20:09:06.370Z,12.40
2023-05-01T20:14:08.973Z,14.00
2023-05-01T20:19:13.012Z,10.00
2023-05-01T20:24:17.307Z,18.80
2023-05-01T20:29:20.217Z,10.50
2023-05-01T20:34:24.802Z,12.00
2023-05-01T20:39:27.266Z,12.00
2023-05-01T20:44:32.209Z,12.50
2023-05-01T20:49:35.385Z,10.70
2023-05-01T20:54:37.854Z,11.20
2023-05-01T20:59:40.339Z,11.50
2023-05-01T21:04:43.092Z,11.30
2023-05-01T21:09:45.939Z,13.80
2023-05-01T21:14:49.106Z,11.70
2023-05-01T21:19:52.339Z,14.20
2023-05-01T21:24:57.186Z,12.90
2023-05-01T21:30:02.669Z,14.10
2023-05-01T21:35:06.805Z,11.30
2023-05-01T21:40:14.890Z,13.20
2023-05-01T21:45:19.588Z,10.90
2023-05-01T21:50:21.625Z,10.40
2023-05-01T21:55:25.911Z,9.80
2023-05-01T22:00:29.574Z,10.60
2023-05-01T22:05:32.710Z,9.70
2023-05-01T22:10:36.349Z,8.90
2023-05-01T22:15:38.263Z,10.50
2023-05-01T22:20:40.697Z,8.90
2023-05-01T22:25:42.690Z,8.30
2023-05-01T22:30:45.192Z,8.40
2023-05-01T22:35:47.692Z,8.30
2023-05-01T22:40:49.779Z,9.10
2023-05-01T22:45:51.829Z,9.30
2023-05-01T22:50:53.823Z,10.90
2023-05-01T22:55:56.265Z,9.30
2023-05-01T23:00:58.266Z,8.70
2023-05-01T23:06:00.638Z,9.30
2023-05-01T23:11:05.321Z,9.70
2023-05-01T23:16:08.222Z,8.20
2023-05-01T23:21:13.515Z,8.60
2023-05-01T23:26:21.542Z,8.90
2023-05-01T23:31:25.311Z,8.10
2023-05-01T23:36:28.620Z,8.80
2023-05-01T23:41:30.888Z,8.70
2023-05-01T23:46:33.154Z,6.90
2023-05-01T23:51:35.444Z,7.50
2023-05-01T23:56:37.457Z,9.20
